Time;durP1;ratioP1;P1;durP2;ratioP2;P2;SDS_P1;SDS_P2;PMS_P1;PMS_P2;Temp;Humidity;BMP_temperature;BMP_pressure;BME280_temperature;BME280_humidity;BME280_pressure;Samples;Min_cycle;Max_cycle;Signal;HPM_P1;HPM_P2
2022/08/25 00:00:40;;;;;;;23.80;14.40;;;;;;;19.29;99.48;100619.12;105887;1270;24504;-65
2022/08/25 00:03:15;;;;;;;31.10;16.20;;;;;;;19.28;99.46;100621.03;105961;1270;25370;-65
2022/08/25 00:05:47;;;;;;;24.30;15.10;;;;;;;19.27;99.37;100619.45;106007;1270;25617;-65
2022/08/25 00:08:18;;;;;;;27.60;15.80;;;;;;;19.25;99.27;100616.96;106021;1270;24428;-66
2022/08/25 00:10:50;;;;;;;28.30;16.30;;;;;;;19.22;99.37;100615.34;105872;1270;25547;-65
2022/08/25 00:13:22;;;;;;;29.70;16.80;;;;;;;19.20;99.45;100614.65;106089;1270;24543;-65
2022/08/25 00:15:53;;;;;;;25.90;14.70;;;;;;;19.18;99.17;100615.85;106107;1270;22679;-65
2022/08/25 00:18:25;;;;;;;25.80;15.10;;;;;;;19.15;99.26;100616.95;107236;1262;78590;-80
2022/08/25 00:20:56;;;;;;;26.80;16.00;;;;;;;19.13;99.10;100612.80;107313;1270;24323;-80
2022/08/25 00:23:28;;;;;;;25.90;15.30;;;;;;;19.10;99.41;100612.08;107339;1270;23995;-79
2022/08/25 00:25:59;;;;;;;32.50;15.30;;;;;;;19.09;99.44;100610.23;107194;1270;22564;-81
2022/08/25 00:28:30;;;;;;;24.50;13.20;;;;;;;19.08;99.30;100611.09;107184;1270;22647;-80
2022/08/25 00:31:02;;;;;;;26.10;13.90;;;;;;;19.09;99.08;100617.27;107194;1270;25536;-81
2022/08/25 00:33:34;;;;;;;30.30;16.60;;;;;;;19.08;98.92;100615.12;107087;1270;22660;-79
2022/08/25 00:36:06;;;;;;;30.40;16.80;;;;;;;19.07;98.89;100618.02;107051;1270;22524;-80
2022/08/25 00:38:38;;;;;;;25.70;15.50;;;;;;;19.04;98.90;100615.73;107204;1270;23945;-79
2022/08/25 00:41:12;;;;;;;27.20;16.50;;;;;;;19.03;98.92;100622.98;107161;1270;22545;-80
2022/08/25 00:43:50;;;;;;;26.70;17.20;;;;;;;19.04;98.82;100625.08;107173;1270;22543;-80
2022/08/25 00:46:25;;;;;;;25.00;15.90;;;;;;;19.05;98.83;100623.84;107220;1270;22948;-79
2022/08/25 00:49:02;;;;;;;30.50;16.00;;;;;;;19.05;99.03;100626.32;107313;1270;25463;-80
2022/08/25 00:51:39;;;;;;;30.00;18.30;;;;;;;19.05;99.11;100628.54;107509;1270;22601;-79
2022/08/25 00:54:15;;;;;;;31.40;19.70;;;;;;;19.06;99.23;100632.13;107300;1270;22692;-79
2022/08/25 00:56:50;;;;;;;32.50;21.00;;;;;;;19.07;99.41;100633.48;107047;1270;24342;-80
2022/08/25 00:59:25;;;;;;;30.30;18.60;;;;;;;19.08;99.70;100631.32;107507;1270;22556;-80
2022/08/25 01:01:58;;;;;;;30.60;17.40;;;;;;;19.07;99.79;100628.36;107281;1270;22494;-79
2022/08/25 01:04:30;;;;;;;27.60;16.70;;;;;;;19.05;99.70;100628.05;107330;1270;22609;-80
2022/08/25 01:07:02;;;;;;;26.00;16.20;;;;;;;19.04;99.71;100623.48;107221;1270;23935;-81
2022/08/25 01:09:35;;;;;;;28.90;16.20;;;;;;;19.03;99.55;100624.48;107709;1270;22666;-80
2022/08/25 01:12:07;;;;;;;26.60;15.30;;;;;;;19.00;99.48;100621.94;107700;1270;22492;-80
2022/08/25 01:14:39;;;;;;;27.70;15.00;;;;;;;18.99;99.64;100626.73;107584;1268;24260;-80
2022/08/25 01:17:12;;;;;;;25.40;14.90;;;;;;;18.98;99.46;100626.74;107224;1270;22516;-81
2022/08/25 01:19:45;;;;;;;28.90;14.80;;;;;;;18.96;99.67;100626.80;107216;1270;22527;-81
2022/08/25 01:22:16;;;;;;;24.70;14.70;;;;;;;18.94;99.98;100621.98;107331;1270;22551;-80
2022/08/25 01:24:56;;;;;;;26.60;13.30;;;;;;;18.92;99.73;100621.19;107185;1270;22778;-81
2022/08/25 01:27:27;;;;;;;24.90;13.90;;;;;;;18.89;99.76;100618.08;107192;1270;24211;-80
2022/08/25 01:29:58;;;;;;;24.80;12.10;;;;;;;18.86;99.65;100616.36;107257;1270;22536;-80
2022/08/25 01:32:33;;;;;;;22.60;12.70;;;;;;;18.80;99.81;100613.48;107159;1270;24312;-80
2022/08/25 01:35:06;;;;;;;28.00;11.70;;;;;;;18.77;99.72;100615.45;107359;1270;24204;-80
2022/08/25 01:37:37;;;;;;;26.60;11.80;;;;;;;18.74;100.00;100616.20;107310;1270;22698;-80
2022/08/25 01:40:11;;;;;;;30.90;13.10;;;;;;;18.69;100.00;100612.73;107144;1270;22696;-80
2022/08/25 01:43:03;;;;;;;30.30;14.40;;;;;;;18.67;100.00;100610.90;107180;1270;22684;-79
2022/08/25 01:45:34;;;;;;;24.80;12.20;;;;;;;18.64;99.94;100611.91;107536;1270;22554;-80
2022/08/25 01:48:07;;;;;;;18.00;10.90;;;;;;;18.60;99.92;100613.73;107634;1270;25565;-80
2022/08/25 01:50:40;;;;;;;21.20;10.90;;;;;;;18.56;99.88;100615.56;107590;1270;22597;-81
2022/08/25 01:53:18;;;;;;;19.90;10.60;;;;;;;18.54;99.89;100610.85;107522;1270;22464;-80
2022/08/25 01:55:54;;;;;;;29.90;12.00;;;;;;;18.53;99.95;100614.45;107543;1270;22484;-80
2022/08/25 01:58:28;;;;;;;28.90;12.60;;;;;;;18.50;100.00;100610.92;107564;1270;24074;-80
2022/08/25 02:01:02;;;;;;;27.40;11.90;;;;;;;18.47;100.00;100613.58;107269;1270;22810;-80
2022/08/25 02:03:33;;;;;;;19.00;10.20;;;;;;;18.45;100.00;100617.66;107353;1270;22631;-80
2022/08/25 02:06:05;;;;;;;23.10;12.30;;;;;;;18.44;100.00;100616.48;107166;1270;26032;-80
2022/08/25 02:08:37;;;;;;;22.30;12.00;;;;;;;18.41;100.00;100613.30;107155;1270;22547;-80
2022/08/25 02:11:11;;;;;;;41.10;13.40;;;;;;;18.39;100.00;100615.04;108385;1264;22660;-80
2022/08/25 02:13:44;;;;;;;32.00;14.60;;;;;;;18.35;100.00;100612.75;109021;1270;22614;-80
2022/08/25 02:16:23;;;;;;;25.70;11.70;;;;;;;18.30;99.99;100610.68;108735;1270;22549;-82
2022/08/25 02:18:55;;;;;;;53.70;15.20;;;;;;;18.26;100.00;100610.20;108661;1270;22640;-79
2022/08/25 02:21:27;;;;;;;32.40;13.20;;;;;;;18.23;100.00;100605.95;108476;1270;25460;-80
2022/08/25 02:23:59;;;;;;;25.50;12.60;;;;;;;18.22;100.00;100606.21;108443;1271;25888;-79
2022/08/25 02:26:30;;;;;;;23.20;12.70;;;;;;;18.21;100.00;100604.02;108467;1271;22641;-80
2022/08/25 02:29:03;;;;;;;21.80;12.90;;;;;;;18.19;100.00;100598.53;108387;1271;25501;-80
2022/08/25 02:31:38;;;;;;;28.80;13.80;;;;;;;18.17;100.00;100594.94;108372;1271;22580;-79
2022/08/25 02:34:11;;;;;;;33.90;13.40;;;;;;;18.16;100.00;100593.56;108423;1271;22554;-79
2022/08/25 02:36:43;;;;;;;33.30;11.80;;;;;;;18.14;100.00;100594.30;108358;1270;22625;-80
2022/08/25 02:39:17;;;;;;;26.40;10.80;;;;;;;18.13;100.00;100591.27;108353;1271;22625;-81
2022/08/25 02:41:50;;;;;;;18.90;10.80;;;;;;;18.14;100.00;100596.46;108226;1271;22620;-79
2022/08/25 02:44:22;;;;;;;17.20;10.50;;;;;;;18.13;100.00;100600.05;108596;1271;22664;-79
2022/08/25 02:46:53;;;;;;;16.40;10.10;;;;;;;18.13;100.00;100596.40;108573;1271;22593;-81
2022/08/25 02:49:25;;;;;;;13.60;7.70;;;;;;;18.11;100.00;100595.35;108753;1271;22664;-80
2022/08/25 02:51:59;;;;;;;17.90;10.60;;;;;;;18.12;100.00;100598.11;108246;1270;23201;-80
2022/08/25 02:54:30;;;;;;;23.00;12.00;;;;;;;18.13;100.00;100600.31;108360;1271;23131;-79
2022/08/25 02:57:02;;;;;;;18.20;11.30;;;;;;;18.13;100.00;100596.51;108647;1271;22593;-79
2022/08/25 02:59:35;;;;;;;24.90;14.60;;;;;;;18.14;100.00;100597.42;108599;1271;22904;-79
2022/08/25 03:02:07;;;;;;;28.80;13.40;;;;;;;18.16;100.00;100590.84;108250;1271;23053;-80
2022/08/25 03:04:40;;;;;;;19.60;11.80;;;;;;;18.17;100.00;100596.59;108230;1271;22779;-79
2022/08/25 03:07:12;;;;;;;26.10;14.50;;;;;;;18.18;100.00;100592.89;108257;1271;22729;-80
2022/08/25 03:09:44;;;;;;;27.50;15.70;;;;;;;18.16;100.00;100593.45;108204;1271;24554;-80
2022/08/25 03:12:16;;;;;;;28.60;16.60;;;;;;;18.17;100.00;100596.13;108243;1271;22596;-79
2022/08/25 03:14:47;;;;;;;29.90;16.40;;;;;;;18.21;100.00;100595.84;108079;1271;22546;-79
2022/08/25 03:17:18;;;;;;;32.00;17.20;;;;;;;18.23;100.00;100591.68;108146;1271;22546;-79
2022/08/25 03:19:50;;;;;;;34.00;17.10;;;;;;;18.23;100.00;100589.31;108186;1271;23190;-79
2022/08/25 03:22:21;;;;;;;35.30;18.10;;;;;;;18.23;100.00;100585.91;108245;1271;24274;-79
2022/08/25 03:26:52;;;;;;;32.00;17.70;;;;;;;18.22;100.00;100588.96;108155;1271;22588;-79
2022/08/25 03:27:48;;;;;;;30.30;16.90;;;;;;;18.24;100.00;100585.59;108099;1270;22660;-79
2022/08/25 03:30:20;;;;;;;37.10;20.80;;;;;;;18.24;100.00;100581.55;108118;1271;22574;-79
2022/08/25 03:32:51;;;;;;;38.50;21.30;;;;;;;18.25;100.00;100580.96;108081;1271;22755;-79
2022/08/25 03:35:24;;;;;;;36.50;19.40;;;;;;;18.25;100.00;100583.27;108081;1271;22576;-78
2022/08/25 03:37:59;;;;;;;37.10;19.50;;;;;;;18.26;100.00;100579.77;108198;1271;22603;-79
2022/08/25 03:40:31;;;;;;;38.70;15.70;;;;;;;18.24;100.00;100582.98;108142;1271;22603;-80
2022/08/25 03:43:03;;;;;;;35.40;17.10;;;;;;;18.18;100.00;100583.89;108547;1271;22605;-80
2022/08/25 03:45:34;;;;;;;32.00;17.50;;;;;;;18.16;100.00;100582.52;108590;1271;22550;-80
2022/08/25 03:48:07;;;;;;;37.00;18.30;;;;;;;18.16;100.00;100586.27;108527;1271;25443;-79
2022/08/25 03:50:43;;;;;;;33.70;17.60;;;;;;;18.17;100.00;100589.85;108544;1271;22487;-79
2022/08/25 03:53:15;;;;;;;30.10;16.60;;;;;;;18.17;100.00;100592.27;108132;1271;22744;-79
2022/08/25 03:55:46;;;;;;;30.20;17.30;;;;;;;18.17;100.00;100591.80;108075;1271;23079;-79
2022/08/25 03:58:18;;;;;;;39.30;19.70;;;;;;;18.16;100.00;100595.88;108170;1271;22714;-79
2022/08/25 04:00:49;;;;;;;40.80;19.70;;;;;;;18.17;100.00;100595.36;108057;1271;22636;-79
2022/08/25 04:03:21;;;;;;;35.80;16.50;;;;;;;18.17;100.00;100596.53;108010;1271;23088;-79
2022/08/25 04:05:52;;;;;;;26.10;16.40;;;;;;;18.18;100.00;100591.91;108027;1271;22598;-79
2022/08/25 04:08:27;;;;;;;29.70;17.60;;;;;;;18.18;100.00;100595.39;108157;1271;22536;-80
2022/08/25 04:10:58;;;;;;;30.00;16.90;;;;;;;18.18;100.00;100600.89;108088;1271;22535;-79
2022/08/25 04:13:30;;;;;;;28.80;15.20;;;;;;;18.20;100.00;100601.24;108421;1271;22474;-80
2022/08/25 04:16:03;;;;;;;27.40;15.60;;;;;;;18.21;100.00;100600.05;108079;1271;22637;-80
2022/08/25 04:18:34;;;;;;;24.10;14.40;;;;;;;18.21;100.00;100602.36;108234;1271;22622;-79
2022/08/25 04:21:07;;;;;;;28.30;15.30;;;;;;;18.22;100.00;100600.05;107016;1271;25583;-75
2022/08/25 04:23:40;;;;;;;24.50;15.70;;;;;;;18.23;100.00;100597.54;106429;1271;22799;-74
2022/08/25 04:26:14;;;;;;;26.50;15.40;;;;;;;18.24;100.00;100600.52;106349;1271;22537;-75
2022/08/25 04:28:48;;;;;;;28.40;15.30;;;;;;;18.26;100.00;100601.57;106387;1271;25155;-75
2022/08/25 04:31:23;;;;;;;29.10;16.50;;;;;;;18.28;100.00;100601.20;106469;1271;23097;-75
2022/08/25 04:33:55;;;;;;;29.10;15.90;;;;;;;18.29;100.00;100604.02;106522;1271;22541;-77
2022/08/25 04:36:26;;;;;;;38.10;17.30;;;;;;;18.28;100.00;100598.27;106865;1271;22690;-77
2022/08/25 04:38:57;;;;;;;32.10;16.70;;;;;;;18.27;100.00;100596.63;106355;1270;24224;-75
2022/08/25 04:41:30;;;;;;;38.30;16.00;;;;;;;18.27;100.00;100599.19;106355;1271;24253;-78
2022/08/25 04:44:02;;;;;;;31.50;16.60;;;;;;;18.28;100.00;100602.63;106392;1271;22501;-75
2022/08/25 04:46:35;;;;;;;25.90;16.70;;;;;;;18.28;100.00;100601.39;106254;1270;22706;-75
2022/08/25 04:49:06;;;;;;;29.50;17.10;;;;;;;18.30;100.00;100601.60;106311;1271;22560;-76
2022/08/25 04:51:40;;;;;;;31.70;17.40;;;;;;;18.32;100.00;100601.13;106378;1271;23243;-76
2022/08/25 04:54:16;;;;;;;29.40;16.30;;;;;;;18.35;100.00;100599.91;106517;1270;25390;-73
2022/08/25 04:56:49;;;;;;;27.90;15.40;;;;;;;18.35;100.00;100593.22;106581;1271;22549;-76
2022/08/25 04:59:21;;;;;;;30.80;16.60;;;;;;;18.36;100.00;100593.07;106371;1271;22531;-76
2022/08/25 05:01:52;;;;;;;33.70;18.70;;;;;;;18.38;100.00;100589.55;106297;1271;22825;-75
2022/08/25 05:04:27;;;;;;;30.60;16.40;;;;;;;18.39;100.00;100587.08;106260;1271;24318;-75
2022/08/25 05:06:59;;;;;;;27.70;16.70;;;;;;;18.41;100.00;100589.13;106307;1271;25368;-77
2022/08/25 05:09:31;;;;;;;32.90;19.10;;;;;;;18.44;100.00;100585.54;106428;1271;25506;-77
2022/08/25 05:12:05;;;;;;;29.20;16.50;;;;;;;18.46;100.00;100585.27;106305;1271;22620;-77
2022/08/25 05:14:36;;;;;;;29.50;16.20;;;;;;;18.49;100.00;100586.48;106399;1271;22705;-77
2022/08/25 05:17:07;;;;;;;29.80;15.50;;;;;;;18.49;100.00;100588.38;106444;1271;22750;-77
2022/08/25 05:19:39;;;;;;;33.30;15.90;;;;;;;18.47;100.00;100584.38;106380;1271;22944;-76
2022/08/25 05:22:10;;;;;;;28.60;15.40;;;;;;;18.44;100.00;100584.61;106476;1271;25545;-76
2022/08/25 05:24:41;;;;;;;30.90;15.40;;;;;;;18.42;100.00;100585.52;106315;1271;24273;-77
2022/08/25 05:27:12;;;;;;;26.40;15.60;;;;;;;18.40;100.00;100588.73;106314;1271;22762;-76
2022/08/25 05:29:44;;;;;;;27.30;14.50;;;;;;;18.38;100.00;100580.30;106297;1271;25491;-76
2022/08/25 05:32:15;;;;;;;30.60;16.50;;;;;;;18.38;100.00;100577.84;106287;1271;22557;-76
2022/08/25 05:34:47;;;;;;;28.50;15.90;;;;;;;18.36;100.00;100579.34;106289;1271;25243;-76
2022/08/25 05:37:21;;;;;;;31.50;15.70;;;;;;;18.37;100.00;100576.66;106356;1271;22705;-76
2022/08/25 05:39:53;;;;;;;30.20;16.30;;;;;;;18.39;100.00;100579.16;106306;1271;25421;-75
2022/08/25 05:42:24;;;;;;;27.40;16.50;;;;;;;18.42;100.00;100578.65;106281;1271;22679;-76
2022/08/25 05:44:56;;;;;;;28.90;17.80;;;;;;;18.47;100.00;100574.15;106319;1271;22847;-77
2022/08/25 05:47:29;;;;;;;31.80;19.10;;;;;;;18.54;100.00;100571.99;106285;1271;22677;-76
2022/08/25 05:50:01;;;;;;;25.70;15.10;;;;;;;18.58;100.00;100569.54;106255;1271;24228;-76
2022/08/25 05:52:33;;;;;;;31.50;17.40;;;;;;;18.61;100.00;100571.94;106350;1271;22699;-76
2022/08/25 05:55:05;;;;;;;25.00;15.90;;;;;;;18.62;100.00;100572.44;106329;1271;24280;-76
2022/08/25 05:57:37;;;;;;;26.30;16.80;;;;;;;18.66;100.00;100575.13;106294;1271;24433;-76
2022/08/25 06:00:11;;;;;;;22.50;15.40;;;;;;;18.72;100.00;100576.72;106292;1271;22527;-76
2022/08/25 06:02:45;;;;;;;26.40;17.10;;;;;;;18.78;100.00;100585.48;106375;1271;25475;-76
2022/08/25 06:05:18;;;;;;;24.50;16.60;;;;;;;18.86;100.00;100584.83;106313;1271;22574;-76
2022/08/25 06:07:52;;;;;;;27.20;17.80;;;;;;;18.95;100.00;100589.11;106342;1271;23316;-77
2022/08/25 06:10:24;;;;;;;29.10;18.20;;;;;;;19.01;100.00;100587.40;106373;1271;22536;-76
2022/08/25 06:12:55;;;;;;;26.20;17.50;;;;;;;19.06;100.00;100588.08;106237;1272;25481;-76
2022/08/25 06:15:27;;;;;;;29.50;18.50;;;;;;;19.10;100.00;100589.80;106444;1271;22743;-76
2022/08/25 06:18:01;;;;;;;26.70;17.60;;;;;;;19.13;100.00;100590.17;106327;1271;24313;-76
2022/08/25 06:20:33;;;;;;;26.50;16.30;;;;;;;19.15;100.00;100593.49;106552;1271;25601;-76
2022/08/25 06:23:04;;;;;;;27.20;18.40;;;;;;;19.17;100.00;100597.18;106358;1271;22608;-75
2022/08/25 06:25:36;;;;;;;24.70;15.70;;;;;;;19.17;100.00;100602.48;106285;1271;22589;-75
2022/08/25 06:28:08;;;;;;;26.70;15.90;;;;;;;19.21;100.00;100607.95;106322;1271;24252;-76
2022/08/25 06:30:40;;;;;;;25.30;15.60;;;;;;;19.26;100.00;100610.25;106348;1271;22698;-76
2022/08/25 06:33:13;;;;;;;27.20;17.90;;;;;;;19.30;100.00;100610.92;106365;1271;22567;-76
2022/08/25 06:35:45;;;;;;;28.80;18.40;;;;;;;19.35;100.00;100607.00;106350;1271;22602;-76
2022/08/25 06:38:18;;;;;;;27.20;17.50;;;;;;;19.39;100.00;100611.07;106299;1271;23502;-76
2022/08/25 06:40:51;;;;;;;28.20;19.20;;;;;;;19.43;100.00;100609.69;106257;1271;22554;-76
2022/08/25 06:43:23;;;;;;;28.00;19.30;;;;;;;19.46;100.00;100608.31;106690;1271;24432;-76
2022/08/25 06:45:54;;;;;;;31.20;19.30;;;;;;;19.51;100.00;100604.71;106336;1271;22577;-76
2022/08/25 06:48:26;;;;;;;27.70;18.20;;;;;;;19.55;100.00;100608.05;106329;1271;25319;-76
2022/08/25 06:50:57;;;;;;;25.70;16.30;;;;;;;19.61;100.00;100607.88;106365;1271;22559;-76
2022/08/25 06:53:29;;;;;;;26.00;16.00;;;;;;;19.67;100.00;100612.23;106278;1271;25376;-76
2022/08/25 06:56:01;;;;;;;26.60;17.80;;;;;;;19.72;100.00;100612.27;106299;1271;22550;-76
2022/08/25 06:58:33;;;;;;;27.90;18.90;;;;;;;19.78;100.00;100612.98;106315;1271;22550;-76
2022/08/25 07:01:11;;;;;;;27.40;18.00;;;;;;;19.82;100.00;100613.23;106385;1271;24251;-76
2022/08/25 07:03:43;;;;;;;27.10;15.80;;;;;;;19.82;100.00;100615.70;106248;1271;24439;-76
2022/08/25 07:06:15;;;;;;;28.30;19.00;;;;;;;19.88;100.00;100621.56;106303;1271;22715;-74
2022/08/25 07:08:47;;;;;;;30.00;17.30;;;;;;;19.97;100.00;100623.39;106273;1271;22544;-76
2022/08/25 07:11:19;;;;;;;29.10;17.90;;;;;;;20.05;100.00;100622.27;106266;1271;26611;-76
2022/08/25 07:13:51;;;;;;;28.10;17.10;;;;;;;20.11;100.00;100624.29;106393;1271;23438;-76
2022/08/25 07:16:23;;;;;;;27.80;17.30;;;;;;;20.21;100.00;100628.35;106366;1271;23774;-76
2022/08/25 07:18:55;;;;;;;24.70;15.20;;;;;;;20.26;100.00;100631.94;106401;1271;22550;-75
2022/08/25 07:21:29;;;;;;;25.30;16.40;;;;;;;20.34;100.00;100636.05;106488;1271;24314;-76
2022/08/25 07:24:02;;;;;;;24.90;16.00;;;;;;;20.42;100.00;100633.04;106344;1271;23368;-76
2022/08/25 07:26:35;;;;;;;25.60;14.90;;;;;;;20.49;100.00;100632.52;106284;1271;22528;-74
2022/08/25 07:29:11;;;;;;;26.00;14.60;;;;;;;20.54;100.00;100631.00;106328;1271;24314;-75
2022/08/25 07:31:42;;;;;;;24.70;14.10;;;;;;;20.59;100.00;100625.36;106296;1271;23089;-76
2022/08/25 07:37:03;;;;;;;22.10;12.40;;;;;;;20.67;100.00;100632.86;106274;1271;26510;-76
2022/08/25 07:39:35;;;;;;;21.90;11.50;;;;;;;20.72;100.00;100630.26;106210;1271;22537;-75
2022/08/25 07:42:09;;;;;;;23.30;13.70;;;;;;;20.74;100.00;100625.17;106285;1271;22554;-77
2022/08/25 07:44:40;;;;;;;28.10;15.00;;;;;;;20.74;100.00;100628.21;106268;1271;22529;-75
2022/08/25 07:47:14;;;;;;;23.40;11.80;;;;;;;20.78;100.00;100631.29;106322;1271;22590;-75
2022/08/25 07:49:46;;;;;;;22.50;12.90;;;;;;;20.82;100.00;100626.70;106302;1271;24338;-76
2022/08/25 07:52:18;;;;;;;26.90;13.80;;;;;;;20.89;100.00;100629.55;106347;1271;24978;-76
2022/08/25 07:54:52;;;;;;;24.40;12.50;;;;;;;20.98;100.00;100627.20;106266;1271;26708;-76
2022/08/25 07:57:25;;;;;;;23.80;12.90;;;;;;;21.03;100.00;100624.35;106263;1271;24283;-75
2022/08/25 07:59:57;;;;;;;21.10;12.30;;;;;;;21.08;100.00;100620.09;106468;1271;24234;-75
2022/08/25 08:02:29;;;;;;;21.30;11.70;;;;;;;21.14;100.00;100624.00;106386;1271;22857;-75
2022/08/25 08:05:01;;;;;;;21.40;12.20;;;;;;;21.20;100.00;100627.92;106258;1271;22528;-75
2022/08/25 08:07:33;;;;;;;23.70;11.80;;;;;;;21.27;100.00;100625.23;106247;1271;22602;-75
2022/08/25 08:10:10;;;;;;;22.70;11.50;;;;;;;21.33;100.00;100620.38;106603;1260;25781;31
2022/08/25 08:12:42;;;;;;;22.40;11.70;;;;;;;21.43;100.00;100621.55;106172;1270;24439;-69
2022/08/25 08:15:15;;;;;;;21.60;10.80;;;;;;;21.53;100.00;100619.40;106145;1271;24307;-69
2022/08/25 08:17:46;;;;;;;20.10;8.80;;;;;;;21.62;100.00;100616.11;106429;1271;22620;-69
2022/08/25 08:20:19;;;;;;;21.10;8.70;;;;;;;21.65;100.00;100621.61;106308;1273;22531;-69
2022/08/25 08:22:51;;;;;;;19.60;9.50;;;;;;;21.71;100.00;100622.78;106122;1273;26121;-70
2022/08/25 08:25:23;;;;;;;20.30;8.30;;;;;;;21.76;100.00;100628.11;106141;1273;22651;-66
2022/08/25 08:27:55;;;;;;;19.70;8.30;;;;;;;21.80;100.00;100620.13;105768;1273;22553;-66
2022/08/25 08:30:27;;;;;;;19.80;8.40;;;;;;;21.84;100.00;100623.45;106040;1273;25376;-66
2022/08/25 08:32:59;;;;;;;15.30;5.60;;;;;;;21.87;100.00;100625.45;105878;1273;22696;-65
2022/08/25 08:35:31;;;;;;;23.20;6.80;;;;;;;21.89;99.99;100626.85;105879;1273;23973;-65
2022/08/25 08:38:03;;;;;;;17.00;6.30;;;;;;;21.93;99.93;100622.30;105843;1273;22597;-66
2022/08/25 08:42:15;;;;;;;15.60;5.70;;;;;;;21.96;100.00;100623.48;105797;1273;22558;-66
2022/08/25 08:43:37;;;;;;;17.60;7.60;;;;;;;22.03;100.00;100624.43;105718;1273;24246;-66
2022/08/25 08:46:09;;;;;;;18.20;8.10;;;;;;;22.06;99.91;100623.22;105796;1273;22607;-66
2022/08/25 08:48:57;;;;;;;22.50;7.60;;;;;;;22.08;99.36;100623.02;105965;1273;23009;-66
2022/08/25 08:51:35;;;;;;;17.10;7.10;;;;;;;22.08;98.23;100619.23;105985;1273;22682;-66
2022/08/25 08:54:13;;;;;;;17.70;6.70;;;;;;;22.08;98.41;100613.66;105969;1273;26589;-66
2022/08/25 08:56:49;;;;;;;16.40;6.10;;;;;;;22.11;98.25;100606.34;105865;1273;25456;-65
2022/08/25 08:59:26;;;;;;;17.20;6.10;;;;;;;22.15;97.83;100603.06;106212;1273;24293;-66
2022/08/25 09:02:00;;;;;;;19.70;6.20;;;;;;;22.18;97.90;100601.49;105995;1273;22738;-66
2022/08/25 09:04:40;;;;;;;16.30;5.20;;;;;;;22.23;97.46;100597.23;105912;1273;24168;-67
2022/08/25 09:07:17;;;;;;;18.70;5.80;;;;;;;22.31;97.49;100595.20;106025;1273;22534;-67
2022/08/25 09:09:50;;;;;;;16.00;5.20;;;;;;;22.40;97.18;100594.08;105822;1273;22714;-65
2022/08/25 09:12:32;;;;;;;19.30;6.10;;;;;;;22.51;96.61;100597.08;105811;1273;24262;-65
2022/08/25 09:15:15;;;;;;;16.60;4.00;;;;;;;22.62;96.18;100601.20;106229;1273;26579;-66
2022/08/25 09:18:07;;;;;;;19.60;6.00;;;;;;;22.73;94.58;100600.86;105802;1273;24355;-66
2022/08/25 09:21:03;;;;;;;17.60;4.30;;;;;;;22.85;95.78;100600.10;105798;1272;25320;-66
2022/08/25 09:23:47;;;;;;;16.00;4.60;;;;;;;22.95;93.34;100602.73;106166;1273;24285;-66
2022/08/25 09:26:30;;;;;;;23.70;5.00;;;;;;;23.01;94.36;100593.75;106007;1273;26527;-66
2022/08/25 09:29:08;;;;;;;21.70;4.60;;;;;;;23.07;93.82;100593.83;105749;1273;26737;-65
2022/08/25 09:31:42;;;;;;;20.40;4.10;;;;;;;23.14;93.45;100586.19;105812;1273;23162;-65
2022/08/25 09:34:18;;;;;;;15.00;4.20;;;;;;;23.23;92.62;100587.13;105698;1273;22648;-66
2022/08/25 09:36:51;;;;;;;17.00;4.00;;;;;;;23.30;92.67;100582.95;105860;1273;22559;-66
2022/08/25 09:39:23;;;;;;;21.00;4.80;;;;;;;23.35;92.56;100577.57;105807;1273;22548;-66
2022/08/25 09:41:57;;;;;;;18.10;5.20;;;;;;;23.40;91.57;100577.55;105752;1273;22698;-66
2022/08/25 09:44:32;;;;;;;20.10;4.80;;;;;;;23.45;92.17;100576.31;106045;1273;26397;-67
2022/08/25 09:47:07;;;;;;;24.50;7.10;;;;;;;23.54;92.50;100575.84;105924;1273;22547;-65
2022/08/25 09:49:41;;;;;;;18.50;3.90;;;;;;;23.64;91.71;100576.53;105865;1273;25344;-67
2022/08/25 09:52:36;;;;;;;15.30;3.90;;;;;;;23.71;90.93;100575.27;106055;1273;25317;-67
2022/08/25 09:55:30;;;;;;;16.20;4.00;;;;;;;23.79;90.54;100572.46;105888;1273;22557;-66
2022/08/25 09:58:13;;;;;;;20.30;3.70;;;;;;;23.87;90.74;100568.95;105825;1273;22540;-65
2022/08/25 10:00:45;;;;;;;18.00;3.00;;;;;;;23.93;89.99;100567.84;106073;1273;22765;-69
2022/08/25 10:03:23;;;;;;;15.10;3.60;;;;;;;23.97;89.77;100564.44;105880;1272;25253;-67
2022/08/25 10:06:05;;;;;;;18.40;3.40;;;;;;;24.05;89.78;100558.63;106001;1273;25373;-67
2022/08/25 10:08:41;;;;;;;16.50;2.90;;;;;;;24.14;89.24;100557.97;105993;1273;22545;-67
2022/08/25 10:11:14;;;;;;;18.30;2.70;;;;;;;24.23;88.58;100550.57;106078;1273;22757;-66
2022/08/25 10:13:50;;;;;;;21.00;2.90;;;;;;;24.31;88.05;100544.48;101985;1273;5583594;-66
2022/08/25 10:16:30;;;;;;;18.20;3.60;;;;;;;24.35;87.96;100545.48;105783;1273;24232;-66
2022/08/25 10:19:08;;;;;;;20.10;3.70;;;;;;;24.43;87.69;100544.60;105811;1273;24228;-66
2022/08/25 10:21:46;;;;;;;21.50;3.30;;;;;;;24.52;86.91;100540.08;105858;1273;25361;-66
2022/08/25 10:24:18;;;;;;;15.30;2.80;;;;;;;24.59;87.24;100538.18;105773;1273;24414;-66
2022/08/25 10:27:01;;;;;;;14.50;3.00;;;;;;;24.65;86.42;100533.77;105750;1273;22961;-65
2022/08/25 10:29:52;;;;;;;17.10;3.10;;;;;;;24.68;86.39;100532.90;105942;1273;25267;-66
2022/08/25 10:32:34;;;;;;;24.60;5.00;;;;;;;24.72;86.50;100535.34;105937;1273;25436;-66
2022/08/25 10:35:12;;;;;;;15.50;3.20;;;;;;;24.75;86.06;100527.34;105690;1273;22573;-67
2022/08/25 10:37:55;;;;;;;16.10;3.20;;;;;;;24.80;85.22;100529.80;106128;1273;22666;-66
2022/08/25 10:40:35;;;;;;;20.40;3.80;;;;;;;24.82;84.64;100524.65;105874;1273;24240;-66
2022/08/25 10:43:13;;;;;;;15.50;2.80;;;;;;;24.86;84.76;100521.27;105742;1273;22537;-67
2022/08/25 10:45:50;;;;;;;23.70;4.00;;;;;;;24.92;84.83;100521.73;106109;1273;22556;-66
2022/08/25 10:48:32;;;;;;;23.50;3.30;;;;;;;24.95;84.68;100515.98;105891;1273;26537;-67
2022/08/25 10:51:13;;;;;;;20.30;3.70;;;;;;;25.00;84.69;100507.05;106342;1273;25274;-65
2022/08/25 10:53:56;;;;;;;20.30;3.60;;;;;;;25.04;84.16;100507.55;105791;1273;22864;-68
2022/08/25 10:56:34;;;;;;;20.50;3.50;;;;;;;25.09;84.27;100499.79;105861;1273;24335;-69
2022/08/25 10:59:35;;;;;;;26.50;4.00;;;;;;;25.19;83.70;100497.64;105855;1273;22730;-65
2022/08/25 11:02:44;;;;;;;25.30;4.00;;;;;;;25.27;83.48;100488.63;105900;1273;22532;-66
2022/08/25 11:05:24;;;;;;;18.90;3.40;;;;;;;25.35;83.59;100486.04;106149;1273;22582;-66
2022/08/25 11:08:01;;;;;;;16.60;2.80;;;;;;;25.41;83.10;100481.63;105933;1273;25295;-69
2022/08/25 11:10:42;;;;;;;24.10;4.70;;;;;;;25.48;82.46;100474.83;105736;1273;24379;-66
2022/08/25 11:13:23;;;;;;;22.60;3.90;;;;;;;25.55;82.83;100471.77;105805;1273;25182;-67
2022/08/25 11:16:01;;;;;;;23.00;4.90;;;;;;;25.64;82.48;100464.48;105779;1273;24453;-67
2022/08/25 11:18:34;;;;;;;25.10;4.30;;;;;;;25.68;82.43;100457.30;106089;1272;25397;-67
2022/08/25 11:21:12;;;;;;;23.50;3.70;;;;;;;25.72;81.31;100455.23;106189;1273;22601;-68
2022/08/25 11:23:52;;;;;;;26.50;3.90;;;;;;;25.76;80.57;100452.46;105865;1271;25488;-66
2022/08/25 11:26:33;;;;;;;20.90;4.00;;;;;;;25.82;80.73;100449.84;105724;1273;25244;-66
2022/08/25 11:29:11;;;;;;;28.10;4.30;;;;;;;25.87;81.04;100446.94;105675;1273;22554;-67
2022/08/25 11:31:48;;;;;;;24.20;4.00;;;;;;;25.94;80.69;100444.77;105984;1273;23059;-68
2022/08/25 11:34:22;;;;;;;24.80;3.60;;;;;;;26.00;80.71;100449.30;106069;1273;22535;-66